Kathy C — 2CTI7 — position and weather

sailwx.info

Track history (hours):
 
Tides and Currents Weather Stations Pressure Air Temp Water Temp Dewpoint Dewpoint Depression Visibility Wind Speed Wind Dir Waves Ship Positions

Kathy C

Last reported at 2016-May-04 03:33 UTC. Time now 2016-May-04 04:06 UTC.
Position N 54°36' E 010°54'.

Length 106 m; draft 7.2 m.

Type: Cargo ship. MMSI: 235075591.

Date/timePositionNaut miles runAvg speedWind from/ knotsBaromVisibWave heightAir tempDewpointWater temp
2016-May-04 03:33N 54°36' E 010°54'9 9.0
2016-May-04 02:34N 54°37' E 011°09'9 8.7
2016-May-04 01:33N 54°33' E 011°23'9 8.5
2016-May-04 00:33N 54°30' E 011°36'8 8.4
2016-May-03 23:33N 54°27' E 011°50'9 8.7
2016-May-03 22:33N 54°27' E 012°04'8 7.8
2016-May-03 21:33N 54°33' E 012°12'10 7.7
2016-May-03 20:16N 54°40' E 012°24'46 7.9
2016-May-03 14:29N 54°45' E 013°43'8 8.8
2016-May-03 13:33N 54°43' E 013°56'9 9.2
2016-May-03 12:32N 54°40' E 014°12'31 9.0
2016-May-03 09:07N 54°41' E 015°05'80 9.3
2016-May-03 00:32N 54°55' E 017°21'10 9.7
2016-May-02 23:28N 54°56' E 017°39'9 9.7
2016-May-02 22:30N 54°57' E 017°55'9 9.7
2016-May-02 21:33N 54°57' E 018°12'1010.0
2016-May-02 20:33N 54°57' E 018°29'10 9.6
2016-May-02 19:33N 54°54' E 018°45'10 9.9
2016-May-02 18:33N 54°47' E 018°58'9 9.5
2016-May-02 17:33N 54°38' E 018°56'9 8.7
2016-May-02 16:33N 54°32' E 018°46'8 7.5
2016-May-02 15:34N 54°32' E 018°33'0 0.0
2016-May-02 14:33N 54°32' E 018°33'0 0.0
2016-May-02 13:33N 54°32' E 018°33'0 0.0
2016-May-02 12:33N 54°32' E 018°33'0 0.0
2016-May-02 11:33N 54°32' E 018°33'0 0.0
2016-May-02 10:33N 54°32' E 018°33'0 0.0
2016-May-02 09:33N 54°32' E 018°33'0 0.0
2016-May-02 08:33N 54°32' E 018°33'0 0.0
2016-May-02 07:33N 54°32' E 018°33'0 0.0
2016-May-02 06:33N 54°32' E 018°33'0 0.0
2016-May-02 05:33N 54°32' E 018°33'0 0.0
2016-May-02 04:33N 54°32' E 018°33'0 0.0
2016-May-02 03:33N 54°32' E 018°33'0 0.0
2016-May-02 02:33N 54°32' E 018°33'0 0.0
2016-May-02 01:33N 54°32' E 018°33'0 0.0
2016-May-02 00:33N 54°32' E 018°33'0 0.0
2016-May-01 23:33N 54°32' E 018°33'0 0.0
2016-May-01 22:30N 54°32' E 018°33'0 0.0
2016-May-01 21:33N 54°32' E 018°33'0 0.0
2016-May-01 20:33N 54°32' E 018°33'0 0.0
2016-May-01 19:33N 54°32' E 018°33'0 0.0
2016-May-01 18:33N 54°32' E 018°33'0 0.0
2016-May-01 17:33N 54°32' E 018°33'0 0.0
2016-May-01 16:33N 54°32' E 018°33'0 0.0
2016-May-01 15:33N 54°32' E 018°33'0 0.0
2016-May-01 14:33N 54°32' E 018°33'0 0.0
2016-May-01 13:33N 54°32' E 018°33'0 0.0
2016-May-01 12:33N 54°32' E 018°33'0 0.0
2016-May-01 11:33N 54°32' E 018°33'0 0.0
2016-May-01 10:33N 54°32' E 018°33'0 0.0
2016-May-01 09:33N 54°32' E 018°33'0 0.0
2016-May-01 08:33N 54°32' E 018°33'0 0.0
2016-May-01 07:33N 54°32' E 018°33'0 0.0
2016-May-01 06:33N 54°32' E 018°33'0 0.0
2016-May-01 05:33N 54°32' E 018°33'0 0.0
2016-May-01 04:33N 54°32' E 018°33'0 0.0
2016-May-01 03:33N 54°32' E 018°33'0 0.0
2016-May-01 02:33N 54°32' E 018°33'0 0.0
2016-May-01 01:33N 54°32' E 018°33'4 4.1
2016-May-01 00:33N 54°32' E 018°40'10 9.5
2016-Apr-30 23:33N 54°37' E 018°54'1111.1
2016-Apr-30 22:34N 54°48' E 018°57'1111.4
2016-Apr-30 21:33N 54°55' E 018°42'1010.3
2016-Apr-30 20:33N 54°57' E 018°24'1110.5
2016-Apr-30 19:33N 54°57' E 018°06'1110.8
2016-Apr-30 18:31N 54°55' E 017°47'9110.8
2016-Apr-30 10:07N 54°40' E 015°12'911.1
2016-Apr-30 09:19N 54°38' E 014°57'1910.8
2016-Apr-30 07:33N 54°36' E 014°24'1110.6
2016-Apr-30 06:33N 54°39' E 014°06'1110.9
2016-Apr-30 05:33N 54°41' E 013°49'1111.1
2016-Apr-30 04:33N 54°44' E 013°30'1110.7
2016-Apr-30 03:33N 54°44' E 013°11'1110.6
2016-Apr-30 02:33N 54°44' E 012°53'1010.3
2016-Apr-30 01:33N 54°41' E 012°36'1111.0
2016-Apr-30 00:33N 54°33' E 012°22'1110.7
2016-Apr-29 23:33N 54°25' E 012°10'10 9.9
2016-Apr-29 22:33N 54°25' E 011°53'1010.1
2016-Apr-29 21:33N 54°27' E 011°36'1010.3
2016-Apr-29 20:33N 54°32' E 011°20'10 9.8
2016-Apr-29 19:33N 54°35' E 011°04'1111.3
2016-Apr-29 18:33N 54°34' E 010°45'1711.5
2016-Apr-29 17:04N 54°29' E 010°17'610.7
2016-Apr-29 16:33N 54°24' E 010°12'3 3.0
2016-Apr-29 15:33N 54°22' E 010°09'2 1.6
2016-Apr-29 14:34N 54°22' E 010°06'7 7.4
2016-Apr-29 13:33N 54°21' E 009°53'7 7.1
2016-Apr-29 12:31N 54°18' E 009°42'11 8.0
2016-Apr-29 11:09N 54°11' E 009°28'6 8.3
2016-Apr-29 10:27N 54°07' E 009°20'8 8.6
2016-Apr-29 09:33N 53°60' E 009°17'5 4.9
2016-Apr-29 08:33N 53°56' E 009°13'2 1.6
2016-Apr-29 07:34N 53°55' E 009°11'0 0.0
2016-Apr-29 06:33N 53°55' E 009°11'2 2.4
2016-Apr-29 05:33N 53°53' E 009°08'6 6.1
2016-Apr-29 04:33N 53°51' E 008°58'1111.2
2016-Apr-29 03:33N 53°55' E 008°40'1211.6
2016-Apr-29 02:33N 53°59' E 008°22'1111.5
2016-Apr-29 01:33N 53°59' E 008°03'1010.3
2016-Apr-29 00:33N 53°56' E 007°46'9 9.0
2016-Apr-28 23:34N 53°54' E 007°31'9 9.4
2016-Apr-28 22:34N 53°52' E 007°15'10 9.6
2016-Apr-28 21:34N 53°50' E 006°59'10 9.8
2016-Apr-28 20:34N 53°47' E 006°43'1110.5
2016-Apr-28 19:33N 53°45' E 006°26'1010.4
2016-Apr-28 18:33N 53°42' E 006°09'1010.3
2016-Apr-28 17:33N 53°39' E 005°53'1010.3
2016-Apr-28 16:34N 53°35' E 005°36'1010.1
2016-Apr-28 15:34N 53°32' E 005°20'1110.4
2016-Apr-28 14:33N 53°29' E 005°03'3410.5
2016-Apr-28 11:16N 53°03' E 004°26'811.5
2016-Apr-28 10:33N 52°56' E 004°19'10711.8
2016-Apr-28 01:32N 51°36' E 002°24'1010.2
2016-Apr-28 00:33N 51°28' E 002°14'9 9.4
2016-Apr-27 23:34N 51°20' E 002°07'9 9.0
2016-Apr-27 22:34N 51°12' E 001°59'9 9.1
2016-Apr-27 21:34N 51°07' E 001°47'9 9.1
2016-Apr-27 20:33N 51°00' E 001°37'10 9.5
2016-Apr-27 19:33N 50°52' E 001°29'6210.3
2016-Apr-27 13:34N 50°20' E 000°06'1312.7
2016-Apr-27 12:31N 50°16' W 000°14'  
Track history (hours):
 
Tides and Currents Weather Stations Pressure Air Temp Water Temp Dewpoint Dewpoint Depression Visibility Wind Speed Wind Dir Waves Ship Positions

Kathy C

Last reported at 2016-May-04 03:33 UTC. Time now 2016-May-04 04:06 UTC.
Position N 54°36' E 010°54'.

Length 106 m; draft 7.2 m.

Type: Cargo ship. MMSI: 235075591.

Date/timePositionNaut miles runAvg speedWind from/ knotsBaromVisibWave heightAir tempDewpointWater temp
2016-May-04 03:33N 54°36' E 010°54'9 9.0
2016-May-04 02:34N 54°37' E 011°09'9 8.7
2016-May-04 01:33N 54°33' E 011°23'9 8.5
2016-May-04 00:33N 54°30' E 011°36'8 8.4
2016-May-03 23:33N 54°27' E 011°50'9 8.7
2016-May-03 22:33N 54°27' E 012°04'8 7.8
2016-May-03 21:33N 54°33' E 012°12'10 7.7
2016-May-03 20:16N 54°40' E 012°24'46 7.9
2016-May-03 14:29N 54°45' E 013°43'8 8.8
2016-May-03 13:33N 54°43' E 013°56'9 9.2
2016-May-03 12:32N 54°40' E 014°12'31 9.0
2016-May-03 09:07N 54°41' E 015°05'80 9.3
2016-May-03 00:32N 54°55' E 017°21'10 9.7
2016-May-02 23:28N 54°56' E 017°39'9 9.7
2016-May-02 22:30N 54°57' E 017°55'9 9.7
2016-May-02 21:33N 54°57' E 018°12'1010.0
2016-May-02 20:33N 54°57' E 018°29'10 9.6
2016-May-02 19:33N 54°54' E 018°45'10 9.9
2016-May-02 18:33N 54°47' E 018°58'9 9.5
2016-May-02 17:33N 54°38' E 018°56'9 8.7
2016-May-02 16:33N 54°32' E 018°46'8 7.5
2016-May-02 15:34N 54°32' E 018°33'0 0.0
2016-May-02 14:33N 54°32' E 018°33'0 0.0
2016-May-02 13:33N 54°32' E 018°33'0 0.0
2016-May-02 12:33N 54°32' E 018°33'0 0.0
2016-May-02 11:33N 54°32' E 018°33'0 0.0
2016-May-02 10:33N 54°32' E 018°33'0 0.0
2016-May-02 09:33N 54°32' E 018°33'0 0.0
2016-May-02 08:33N 54°32' E 018°33'0 0.0
2016-May-02 07:33N 54°32' E 018°33'0 0.0
2016-May-02 06:33N 54°32' E 018°33'0 0.0
2016-May-02 05:33N 54°32' E 018°33'0 0.0
2016-May-02 04:33N 54°32' E 018°33'0 0.0
2016-May-02 03:33N 54°32' E 018°33'0 0.0
2016-May-02 02:33N 54°32' E 018°33'0 0.0
2016-May-02 01:33N 54°32' E 018°33'0 0.0
2016-May-02 00:33N 54°32' E 018°33'0 0.0
2016-May-01 23:33N 54°32' E 018°33'0 0.0
2016-May-01 22:30N 54°32' E 018°33'0 0.0
2016-May-01 21:33N 54°32' E 018°33'0 0.0
2016-May-01 20:33N 54°32' E 018°33'0 0.0
2016-May-01 19:33N 54°32' E 018°33'0 0.0
2016-May-01 18:33N 54°32' E 018°33'0 0.0
2016-May-01 17:33N 54°32' E 018°33'0 0.0
2016-May-01 16:33N 54°32' E 018°33'0 0.0
2016-May-01 15:33N 54°32' E 018°33'0 0.0
2016-May-01 14:33N 54°32' E 018°33'0 0.0
2016-May-01 13:33N 54°32' E 018°33'0 0.0
2016-May-01 12:33N 54°32' E 018°33'0 0.0
2016-May-01 11:33N 54°32' E 018°33'0 0.0
2016-May-01 10:33N 54°32' E 018°33'0 0.0
2016-May-01 09:33N 54°32' E 018°33'0 0.0
2016-May-01 08:33N 54°32' E 018°33'0 0.0
2016-May-01 07:33N 54°32' E 018°33'0 0.0
2016-May-01 06:33N 54°32' E 018°33'0 0.0
2016-May-01 05:33N 54°32' E 018°33'0 0.0
2016-May-01 04:33N 54°32' E 018°33'0 0.0
2016-May-01 03:33N 54°32' E 018°33'0 0.0
2016-May-01 02:33N 54°32' E 018°33'0 0.0
2016-May-01 01:33N 54°32' E 018°33'4 4.1
2016-May-01 00:33N 54°32' E 018°40'10 9.5
2016-Apr-30 23:33N 54°37' E 018°54'1111.1
2016-Apr-30 22:34N 54°48' E 018°57'1111.4
2016-Apr-30 21:33N 54°55' E 018°42'1010.3
2016-Apr-30 20:33N 54°57' E 018°24'1110.5
2016-Apr-30 19:33N 54°57' E 018°06'1110.8
2016-Apr-30 18:31N 54°55' E 017°47'9110.8
2016-Apr-30 10:07N 54°40' E 015°12'911.1
2016-Apr-30 09:19N 54°38' E 014°57'1910.8
2016-Apr-30 07:33N 54°36' E 014°24'1110.6
2016-Apr-30 06:33N 54°39' E 014°06'1110.9
2016-Apr-30 05:33N 54°41' E 013°49'1111.1
2016-Apr-30 04:33N 54°44' E 013°30'1110.7
2016-Apr-30 03:33N 54°44' E 013°11'1110.6
2016-Apr-30 02:33N 54°44' E 012°53'1010.3
2016-Apr-30 01:33N 54°41' E 012°36'1111.0
2016-Apr-30 00:33N 54°33' E 012°22'1110.7
2016-Apr-29 23:33N 54°25' E 012°10'10 9.9
2016-Apr-29 22:33N 54°25' E 011°53'1010.1
2016-Apr-29 21:33N 54°27' E 011°36'1010.3
2016-Apr-29 20:33N 54°32' E 011°20'10 9.8
2016-Apr-29 19:33N 54°35' E 011°04'1111.3
2016-Apr-29 18:33N 54°34' E 010°45'1711.5
2016-Apr-29 17:04N 54°29' E 010°17'610.7
2016-Apr-29 16:33N 54°24' E 010°12'3 3.0
2016-Apr-29 15:33N 54°22' E 010°09'2 1.6
2016-Apr-29 14:34N 54°22' E 010°06'7 7.4
2016-Apr-29 13:33N 54°21' E 009°53'7 7.1
2016-Apr-29 12:31N 54°18' E 009°42'11 8.0
2016-Apr-29 11:09N 54°11' E 009°28'6 8.3
2016-Apr-29 10:27N 54°07' E 009°20'8 8.6
2016-Apr-29 09:33N 53°60' E 009°17'5 4.9
2016-Apr-29 08:33N 53°56' E 009°13'2 1.6
2016-Apr-29 07:34N 53°55' E 009°11'0 0.0
2016-Apr-29 06:33N 53°55' E 009°11'2 2.4
2016-Apr-29 05:33N 53°53' E 009°08'6 6.1
2016-Apr-29 04:33N 53°51' E 008°58'1111.2
2016-Apr-29 03:33N 53°55' E 008°40'1211.6
2016-Apr-29 02:33N 53°59' E 008°22'1111.5
2016-Apr-29 01:33N 53°59' E 008°03'1010.3
2016-Apr-29 00:33N 53°56' E 007°46'9 9.0
2016-Apr-28 23:34N 53°54' E 007°31'9 9.4
2016-Apr-28 22:34N 53°52' E 007°15'10 9.6
2016-Apr-28 21:34N 53°50' E 006°59'10 9.8
2016-Apr-28 20:34N 53°47' E 006°43'1110.5
2016-Apr-28 19:33N 53°45' E 006°26'1010.4
2016-Apr-28 18:33N 53°42' E 006°09'1010.3
2016-Apr-28 17:33N 53°39' E 005°53'1010.3
2016-Apr-28 16:34N 53°35' E 005°36'1010.1
2016-Apr-28 15:34N 53°32' E 005°20'1110.4
2016-Apr-28 14:33N 53°29' E 005°03'3410.5
2016-Apr-28 11:16N 53°03' E 004°26'811.5
2016-Apr-28 10:33N 52°56' E 004°19'10711.8
2016-Apr-28 01:32N 51°36' E 002°24'1010.2
2016-Apr-28 00:33N 51°28' E 002°14'9 9.4
2016-Apr-27 23:34N 51°20' E 002°07'9 9.0
2016-Apr-27 22:34N 51°12' E 001°59'9 9.1
2016-Apr-27 21:34N 51°07' E 001°47'9 9.1
2016-Apr-27 20:33N 51°00' E 001°37'10 9.5
2016-Apr-27 19:33N 50°52' E 001°29'6210.3
2016-Apr-27 13:34N 50°20' E 000°06'1312.7
2016-Apr-27 12:31N 50°16' W 000°14'  

Dump ship's entire track history